Las Vegas, Nevada
Traffic Map
Current Weather Conditions
Las Vegas, Nevada
Clear
Clear
54°
Feels Like: 54°
Wind Chill: 54° Ceiling: Unl
Heat Index: 54° Visibility: 10mi
Dew Point: 12° Wind: 16mph
Humidity: 19% Direction: 20° (NNE)
Pressure: 30.18in Gusts: 0mph
Raw Report DataKLAS 141456Z 02014KT 10SM CLR 12/M11 A3018 RMK AO2 SLP215 HZ NW-NE T01221111 51026
Traffic Incident Summary
Active as of:
Severity:
Category:
InformationThere was an issue retrieving the traffic information for this location. Please try a different location or try again shortly.
Advertisements